Time;durP1;ratioP1;P1;durP2;ratioP2;P2;SDS_P1;SDS_P2;PMS_P1;PMS_P2;Temp;Humidity;BMP_temperature;BMP_pressure;BME280_temperature;BME280_humidity;BME280_pressure;Samples;Min_cycle;Max_cycle;Signal;HPM_P1;HPM_P2
2021/10/07 00:02:25;;;;;;;2.63;1.40;;;;;;;11.37;78.35;101445.03;5079541;28;20291;-84
2021/10/07 00:04:51;;;;;;;1.97;1.50;;;;;;;11.35;78.36;101448.72;5061011;28;20229;-84
2021/10/07 00:07:18;;;;;;;4.80;1.70;;;;;;;11.32;78.48;101448.88;5073322;28;20321;-83
2021/10/07 00:09:44;;;;;;;2.97;1.47;;;;;;;11.30;78.75;101454.28;5066347;28;20272;-83
2021/10/07 00:12:12;;;;;;;1.97;1.53;;;;;;;11.28;78.61;101452.66;5071084;28;20293;-83
2021/10/07 00:14:39;;;;;;;4.83;1.57;;;;;;;11.25;78.73;101458.16;5061840;28;20751;-83
2021/10/07 00:17:06;;;;;;;2.87;1.40;;;;;;;11.23;78.74;101457.38;5055599;28;20202;-82
2021/10/07 00:19:32;;;;;;;2.40;1.50;;;;;;;11.21;78.88;101467.25;5070482;28;20298;-83
2021/10/07 00:21:59;;;;;;;3.03;1.40;;;;;;;11.18;78.96;101465.63;5064768;28;20219;-83
2021/10/07 00:24:26;;;;;;;2.63;1.50;;;;;;;11.16;78.77;101466.63;5067131;28;20229;-83
2021/10/07 00:26:52;;;;;;;2.03;1.50;;;;;;;11.10;78.73;101470.50;5057029;28;20224;-80
2021/10/07 00:29:36;;;;;;;2.73;1.30;;;;;;;11.02;78.57;101475.38;5079334;28;20295;-84
2021/10/07 00:32:06;;;;;;;2.73;1.60;;;;;;;10.93;78.55;101471.34;5073262;28;20292;-83
2021/10/07 00:34:44;;;;;;;4.13;1.53;;;;;;;10.86;78.59;101474.44;5061410;28;20239;-84
2021/10/07 00:37:21;;;;;;;3.07;1.70;;;;;;;10.82;78.97;101476.38;5068247;28;20224;-84
2021/10/07 00:39:47;;;;;;;2.23;2.00;;;;;;;10.77;79.19;101475.75;5052009;28;20233;-84
2021/10/07 00:42:13;;;;;;;3.77;1.70;;;;;;;10.74;79.32;101476.78;5061440;28;20209;-83
2021/10/07 00:44:44;;;;;;;5.23;2.00;;;;;;;10.71;79.39;101482.28;5057062;28;20212;-83
2021/10/07 00:47:12;;;;;;;2.47;1.90;;;;;;;10.71;79.41;101486.75;5063611;28;20212;-83
2021/10/07 00:49:39;;;;;;;3.80;1.83;;;;;;;10.70;79.68;101491.22;5056198;28;20240;-83
2021/10/07 00:52:07;;;;;;;2.77;1.70;;;;;;;10.71;79.77;101497.41;5076061;28;20209;-83
2021/10/07 00:54:34;;;;;;;2.73;1.87;;;;;;;10.72;79.66;101496.47;5059577;28;20617;-82
2021/10/07 00:57:04;;;;;;;4.13;2.03;;;;;;;10.73;80.26;101503.50;5062429;28;20205;-85
2021/10/07 00:59:33;;;;;;;2.47;1.73;;;;;;;10.74;80.16;101502.56;5060536;28;20288;-84
2021/10/07 01:02:05;;;;;;;2.70;1.93;;;;;;;10.74;80.33;101502.56;5068879;28;20710;-84
2021/10/07 01:04:32;;;;;;;3.30;1.80;;;;;;;10.73;80.37;101506.19;5061973;28;20202;-85
2021/10/07 01:06:58;;;;;;;3.23;2.13;;;;;;;10.74;80.53;101516.75;5070920;28;20324;-82
2021/10/07 01:09:26;;;;;;;3.47;2.20;;;;;;;10.76;80.56;101519.31;5060587;28;20292;-85
2021/10/07 01:11:53;;;;;;;2.63;2.00;;;;;;;10.78;80.54;101520.09;5059117;28;20212;-86
2021/10/07 01:14:33;;;;;;;4.80;2.47;;;;;;;10.81;80.78;101519.09;5061075;28;20304;-84
2021/10/07 01:17:01;;;;;;;4.07;2.20;;;;;;;10.83;80.84;101528.75;5052184;28;20280;-84
2021/10/07 01:19:30;;;;;;;4.50;2.13;;;;;;;10.84;80.83;101517.16;5063220;28;20206;-83
2021/10/07 01:21:58;;;;;;;3.50;2.13;;;;;;;10.86;81.13;101522.41;5064032;28;20292;-84
2021/10/07 01:24:25;;;;;;;2.60;1.90;;;;;;;10.88;81.40;101526.72;5062766;28;20202;-84
2021/10/07 01:26:51;;;;;;;6.03;2.53;;;;;;;10.89;81.20;101527.56;5065606;28;20311;-83
2021/10/07 01:29:18;;;;;;;2.70;2.50;;;;;;;10.91;81.36;101531.03;5064077;28;20291;-83
2021/10/07 01:31:44;;;;;;;3.10;2.57;;;;;;;10.91;81.36;101529.22;5058133;28;20253;-84
2021/10/07 01:34:11;;;;;;;4.03;2.17;;;;;;;10.94;81.49;101529.06;5051709;28;20682;-84
2021/10/07 01:36:38;;;;;;;3.90;2.17;;;;;;;10.95;81.33;101532.56;5041786;28;20267;-85
2021/10/07 01:39:06;;;;;;;3.13;2.27;;;;;;;10.98;81.35;101532.44;5056756;28;20292;-85
2021/10/07 01:41:32;;;;;;;2.50;2.20;;;;;;;10.98;81.52;101532.44;5062605;28;20248;-84
2021/10/07 01:43:59;;;;;;;4.10;2.30;;;;;;;11.00;81.29;101535.88;5068254;28;20235;-84
2021/10/07 01:46:25;;;;;;;4.20;2.33;;;;;;;11.01;81.44;101537.59;5073007;28;20651;-83
2021/10/07 01:48:52;;;;;;;2.27;2.03;;;;;;;10.99;81.44;101536.81;5069809;28;20214;-83
2021/10/07 01:51:19;;;;;;;2.93;1.97;;;;;;;10.97;81.35;101531.56;5064226;28;20223;-82
2021/10/07 01:53:45;;;;;;;4.40;2.60;;;;;;;10.95;81.34;101535.25;5059036;28;20747;-84
2021/10/07 01:56:13;;;;;;;4.80;2.20;;;;;;;10.92;81.33;101541.63;5070189;28;20291;-82
2021/10/07 01:58:40;;;;;;;4.27;2.17;;;;;;;10.90;81.47;101540.81;5071383;28;20205;-83
2021/10/07 02:01:06;;;;;;;3.43;2.13;;;;;;;10.88;81.48;101537.38;5069909;28;20298;-82
2021/10/07 02:03:33;;;;;;;3.90;2.10;;;;;;;10.86;81.65;101539.25;5069102;28;20668;-84
2021/10/07 02:05:59;;;;;;;3.00;2.43;;;;;;;10.85;81.84;101548.19;5061964;28;20210;-84
2021/10/07 02:08:26;;;;;;;3.80;2.10;;;;;;;10.85;81.83;101545.53;5066644;28;20304;-85
2021/10/07 02:10:53;;;;;;;3.33;2.50;;;;;;;10.84;81.86;101553.59;5061353;28;20241;-84
2021/10/07 02:13:21;;;;;;;2.60;2.00;;;;;;;10.82;81.83;101556.31;5071669;28;20679;-83
2021/10/07 02:15:47;;;;;;;3.93;2.30;;;;;;;10.82;82.04;101568.78;5073133;28;20285;-84
2021/10/07 02:18:14;;;;;;;2.30;1.83;;;;;;;10.81;82.03;101569.72;5048614;28;20273;-82
2021/10/07 02:20:40;;;;;;;3.87;2.40;;;;;;;10.81;82.29;101567.06;5063064;28;20316;-82
2021/10/07 02:23:07;;;;;;;3.93;2.10;;;;;;;10.82;82.39;101568.78;5067812;28;20266;-85
2021/10/07 02:25:34;;;;;;;3.00;2.10;;;;;;;10.82;82.40;101574.13;5069998;28;20295;-84
2021/10/07 02:28:00;;;;;;;2.80;1.90;;;;;;;10.83;82.29;101574.03;5068317;28;20284;-84
2021/10/07 02:30:28;;;;;;;2.13;1.93;;;;;;;10.84;82.31;101581.09;5055681;28;20237;-83
2021/10/07 02:32:55;;;;;;;3.90;2.40;;;;;;;10.84;82.23;101583.75;5068957;28;20268;-83
2021/10/07 02:35:22;;;;;;;6.13;2.67;;;;;;;10.83;82.29;101590.03;5068104;28;20651;-82
2021/10/07 02:37:49;;;;;;;4.60;2.30;;;;;;;10.82;82.00;101588.31;5059279;28;20326;-81
2021/10/07 02:40:16;;;;;;;2.57;1.80;;;;;;;10.81;82.25;101591.03;5056886;28;20640;-83
2021/10/07 02:42:45;;;;;;;3.27;1.93;;;;;;;10.77;82.28;101595.66;5059327;28;20210;-84
2021/10/07 02:45:14;;;;;;;3.53;2.10;;;;;;;10.76;82.33;101596.59;5056604;28;20641;-83
2021/10/07 02:47:42;;;;;;;3.27;2.10;;;;;;;10.74;82.21;101598.50;5070543;28;20320;-84
2021/10/07 02:50:12;;;;;;;3.77;2.20;;;;;;;10.72;82.16;101601.22;5063641;28;20240;-84
2021/10/07 02:52:39;;;;;;;4.47;2.03;;;;;;;10.72;82.43;101605.69;5076506;28;20252;-83
2021/10/07 02:55:06;;;;;;;2.50;2.30;;;;;;;10.73;82.59;101607.41;5062754;28;20232;-83
2021/10/07 02:57:32;;;;;;;6.23;2.40;;;;;;;10.74;82.62;101609.16;5076866;28;20575;-83
2021/10/07 02:59:59;;;;;;;3.90;2.30;;;;;;;10.74;82.69;101618.00;5063787;28;20257;-83
2021/10/07 03:02:25;;;;;;;2.70;2.27;;;;;;;10.76;82.90;101628.56;5074599;28;20297;-83
2021/10/07 03:04:53;;;;;;;3.00;2.50;;;;;;;10.77;82.77;101627.63;5060064;28;20324;-83
2021/10/07 03:07:20;;;;;;;3.50;2.20;;;;;;;10.78;83.11;101632.03;5056679;28;20765;-83
2021/10/07 03:09:47;;;;;;;2.67;2.00;;;;;;;10.78;82.93;101635.56;5048893;28;20317;-84
2021/10/07 03:12:13;;;;;;;3.80;1.83;;;;;;;10.81;82.65;101634.53;5051104;28;20297;-86
2021/10/07 03:14:42;;;;;;;3.17;2.43;;;;;;;10.83;82.94;101638.00;5064410;28;20656;-86
2021/10/07 03:17:09;;;;;;;4.43;2.50;;;;;;;10.83;83.04;101632.66;5074824;28;20209;-86
2021/10/07 03:19:36;;;;;;;2.83;2.27;;;;;;;10.84;82.99;101637.06;5067105;28;20288;-85
2021/10/07 03:22:04;;;;;;;7.10;2.80;;;;;;;10.85;82.95;101638.78;5052792;28;20289;-85
2021/10/07 03:24:31;;;;;;;5.57;2.80;;;;;;;10.84;83.10;101639.72;5059484;28;20287;-85
2021/10/07 03:26:58;;;;;;;4.57;2.40;;;;;;;10.84;82.80;101654.84;5067926;28;20316;-85
2021/10/07 03:29:25;;;;;;;4.07;2.73;;;;;;;10.83;83.00;101651.31;5056082;28;20648;-83
2021/10/07 03:31:51;;;;;;;7.27;2.47;;;;;;;10.81;83.08;101650.53;5058924;28;20233;-83
2021/10/07 03:34:18;;;;;;;4.03;1.90;;;;;;;10.82;83.16;101652.25;5068498;28;20269;-84
2021/10/07 03:36:45;;;;;;;4.93;2.60;;;;;;;10.81;83.03;101655.84;5059620;28;20225;-83
2021/10/07 03:39:16;;;;;;;4.53;2.60;;;;;;;10.81;82.93;101647.00;5051119;28;20234;-84
2021/10/07 03:41:42;;;;;;;3.67;2.37;;;;;;;10.82;83.17;101665.59;5067892;28;20270;-84
2021/10/07 03:44:09;;;;;;;2.60;2.40;;;;;;;10.83;82.99;101669.13;5057462;28;20227;-84
2021/10/07 03:46:36;;;;;;;4.50;2.50;;;;;;;10.83;83.08;101675.31;5076462;28;20219;-83
2021/10/07 03:49:03;;;;;;;3.30;2.77;;;;;;;10.83;83.11;101675.31;5060302;28;20325;-84
2021/10/07 03:51:29;;;;;;;4.10;2.80;;;;;;;10.84;83.09;101677.03;5058099;28;20289;-85
2021/10/07 03:53:56;;;;;;;3.60;2.67;;;;;;;10.84;83.07;101679.69;5058256;28;20209;-82
2021/10/07 03:56:24;;;;;;;3.00;2.37;;;;;;;10.85;83.15;101684.09;5059530;28;20282;-83
2021/10/07 03:58:50;;;;;;;4.80;3.00;;;;;;;10.85;83.09;101700.09;5061104;28;20293;-84
2021/10/07 04:01:17;;;;;;;2.70;2.50;;;;;;;10.84;82.94;101701.03;5059997;28;20249;-85
2021/10/07 04:03:44;;;;;;;3.33;3.00;;;;;;;10.83;82.96;101701.09;5061980;28;20309;-85
2021/10/07 04:06:11;;;;;;;3.07;2.33;;;;;;;10.81;82.96;101703.81;5058697;28;20213;-84
2021/10/07 04:08:38;;;;;;;3.70;2.97;;;;;;;10.80;82.72;101710.09;5052196;28;20257;-85
2021/10/07 04:11:05;;;;;;;3.33;2.73;;;;;;;10.80;83.07;101710.09;5055194;28;20248;-85
2021/10/07 04:13:32;;;;;;;4.07;3.10;;;;;;;10.79;83.06;101717.22;5058843;28;20285;-84
2021/10/07 04:15:59;;;;;;;3.80;2.60;;;;;;;10.79;83.30;101719.88;5055821;28;20284;-84
2021/10/07 04:18:26;;;;;;;4.83;4.13;;;;;;;10.82;83.25;101723.34;5058228;28;20237;-84
2021/10/07 04:20:53;;;;;;;4.77;3.20;;;;;;;10.82;82.98;101728.66;5054931;28;20269;-83
2021/10/07 04:23:20;;;;;;;4.03;2.97;;;;;;;10.81;83.27;101730.47;5057638;28;20373;-83
2021/10/07 04:25:47;;;;;;;4.13;3.03;;;;;;;10.80;83.30;101728.75;5068914;28;20240;-84
2021/10/07 04:28:14;;;;;;;3.40;2.87;;;;;;;10.82;83.16;101724.22;5059817;28;20312;-85
2021/10/07 04:30:43;;;;;;;3.43;2.83;;;;;;;10.83;83.18;101736.59;5059933;28;20221;-85
2021/10/07 04:33:11;;;;;;;3.93;3.13;;;;;;;10.82;83.36;101748.19;5075378;28;20269;-86
2021/10/07 04:35:38;;;;;;;5.60;3.10;;;;;;;10.81;83.08;101749.13;5074931;28;20659;-86
2021/10/07 04:38:05;;;;;;;3.63;3.17;;;;;;;10.80;82.98;101752.72;5048632;28;20234;-84
2021/10/07 04:40:32;;;;;;;3.60;2.97;;;;;;;10.78;83.35;101758.13;5056768;28;20235;-83
2021/10/07 04:42:58;;;;;;;4.20;3.50;;;;;;;10.75;83.24;101754.72;5063059;28;20213;-83
2021/10/07 04:45:26;;;;;;;4.57;3.27;;;;;;;10.73;83.65;101757.50;5065699;28;20210;-84
2021/10/07 04:47:54;;;;;;;5.77;3.73;;;;;;;10.72;83.26;101750.44;5057438;28;20320;-83
2021/10/07 04:50:21;;;;;;;4.57;3.10;;;;;;;10.72;83.54;101757.56;5070218;28;20271;-84
2021/10/07 04:52:47;;;;;;;5.20;3.23;;;;;;;10.73;83.71;101756.63;5062436;28;20201;-85
2021/10/07 04:55:14;;;;;;;7.30;3.57;;;;;;;10.74;83.57;101766.34;5083025;28;20296;-85
2021/10/07 04:57:40;;;;;;;5.00;3.40;;;;;;;10.74;83.77;101779.69;5066420;28;20656;-83
2021/10/07 05:00:10;;;;;;;4.70;3.47;;;;;;;10.72;83.83;101776.22;5060400;28;20267;-84
2021/10/07 05:02:37;;;;;;;4.10;3.70;;;;;;;10.70;83.67;101786.06;5060619;28;20213;-84
2021/10/07 05:05:07;;;;;;;3.60;3.30;;;;;;;10.70;83.85;101784.28;5059716;28;20682;-84
2021/10/07 05:07:34;;;;;;;6.10;3.37;;;;;;;10.71;83.85;101793.13;5062290;28;20265;-84
2021/10/07 05:10:01;;;;;;;5.20;3.70;;;;;;;10.71;84.00;101785.13;5059245;28;20657;-84
2021/10/07 05:12:28;;;;;;;3.87;3.50;;;;;;;10.72;83.89;101784.22;5066766;28;20669;-85
2021/10/07 05:14:55;;;;;;;3.97;3.53;;;;;;;10.73;84.16;101793.94;5076859;28;20243;-84
2021/10/07 05:17:21;;;;;;;6.70;3.80;;;;;;;10.73;84.05;101788.59;5074062;28;20792;-84
2021/10/07 05:19:48;;;;;;;17.67;3.20;;;;;;;10.74;84.07;101801.00;5075785;28;20257;-84
2021/10/07 05:22:16;;;;;;;6.30;3.57;;;;;;;10.73;84.02;101802.78;5077909;28;20300;-84
2021/10/07 05:24:42;;;;;;;4.87;3.23;;;;;;;10.73;84.20;101802.78;5064755;28;20205;-84
2021/10/07 05:27:09;;;;;;;6.50;3.50;;;;;;;10.72;84.03;101800.19;5066763;28;20269;-85
2021/10/07 05:29:35;;;;;;;6.47;3.60;;;;;;;10.71;83.94;101809.13;5062524;28;20260;-84
2021/10/07 05:32:02;;;;;;;3.47;2.87;;;;;;;10.69;83.86;101806.53;5053893;28;20298;-84
2021/10/07 05:34:29;;;;;;;5.17;3.47;;;;;;;10.69;83.68;101816.31;5051790;28;20206;-84
2021/10/07 05:36:57;;;;;;;3.27;2.90;;;;;;;10.65;83.57;101822.72;5052234;28;20289;-84
2021/10/07 05:39:26;;;;;;;4.03;2.97;;;;;;;10.62;83.38;101830.84;5056947;28;20217;-84
2021/10/07 05:41:53;;;;;;;4.30;3.30;;;;;;;10.58;83.37;101829.22;5049848;28;20296;-84
2021/10/07 05:44:20;;;;;;;5.53;3.60;;;;;;;10.56;83.43;101834.66;5052766;28;20247;-83
2021/10/07 05:46:47;;;;;;;3.57;3.27;;;;;;;10.54;83.21;101833.84;5050301;28;20260;-84
2021/10/07 05:49:19;;;;;;;3.67;3.37;;;;;;;10.53;83.50;101839.25;5051318;28;20696;-85
2021/10/07 05:51:45;;;;;;;3.30;3.00;;;;;;;10.52;83.16;101842.84;5052570;28;20234;-84
2021/10/07 05:54:12;;;;;;;4.77;3.20;;;;;;;10.48;83.30;101844.78;5050932;28;20664;-84
2021/10/07 05:56:40;;;;;;;4.60;3.27;;;;;;;10.47;83.17;101842.19;5047875;28;20205;-83
2021/10/07 05:59:07;;;;;;;5.17;2.90;;;;;;;10.45;83.33;101850.22;5058727;28;20288;-83
2021/10/07 06:01:33;;;;;;;3.47;2.90;;;;;;;10.41;83.38;101841.50;5057515;28;20263;-84
2021/10/07 06:04:00;;;;;;;3.27;2.67;;;;;;;10.38;83.29;101839.00;5064721;28;20229;-83
2021/10/07 06:06:26;;;;;;;4.93;3.20;;;;;;;10.35;83.30;101843.59;5055089;28;20237;-81
2021/10/07 06:08:53;;;;;;;4.47;3.10;;;;;;;10.28;82.83;101848.31;5056189;28;20313;-83
2021/10/07 06:11:20;;;;;;;5.37;3.47;;;;;;;10.23;82.96;101854.75;5056641;28;20226;-82
2021/10/07 06:13:48;;;;;;;4.00;3.40;;;;;;;10.13;82.90;101856.91;5060628;28;20233;-81
2021/10/07 06:16:16;;;;;;;3.53;3.10;;;;;;;10.03;81.93;101861.75;5052833;28;20210;-83
2021/10/07 06:18:43;;;;;;;3.70;2.90;;;;;;;9.93;82.28;101864.84;5064880;28;20283;-83
2021/10/07 06:21:10;;;;;;;3.80;3.10;;;;;;;9.87;82.51;101873.94;5055591;28;20217;-84
2021/10/07 06:23:39;;;;;;;5.63;3.90;;;;;;;9.81;82.47;101874.22;5054207;28;20232;-84
2021/10/07 06:26:07;;;;;;;5.30;3.43;;;;;;;9.80;82.95;101885.78;5051846;28;20206;-83
2021/10/07 06:28:34;;;;;;;4.37;3.60;;;;;;;9.81;82.83;101881.34;5050504;28;20629;-85
2021/10/07 06:31:02;;;;;;;4.13;3.40;;;;;;;9.82;83.07;101891.06;5047773;28;20309;-84
2021/10/07 06:33:30;;;;;;;4.20;3.80;;;;;;;9.81;83.23;101886.66;5047207;28;20216;-84
2021/10/07 06:35:58;;;;;;;4.37;3.97;;;;;;;9.79;82.97;101885.84;5056013;28;20213;-85
2021/10/07 06:38:25;;;;;;;6.10;4.33;;;;;;;9.80;83.31;101887.59;5047660;28;20567;-85
2021/10/07 06:40:52;;;;;;;5.70;3.80;;;;;;;9.80;83.34;101892.91;5053785;28;20308;-86
2021/10/07 06:43:19;;;;;;;5.60;3.80;;;;;;;9.80;83.71;101891.13;5066078;22;20194;-74
2021/10/07 06:45:46;;;;;;;5.77;4.37;;;;;;;9.80;83.41;101892.91;5043798;28;20239;-71
2021/10/07 06:48:14;;;;;;;6.27;4.50;;;;;;;9.79;83.56;101900.03;5038233;28;20225;-70
2021/10/07 06:50:42;;;;;;;6.93;4.07;;;;;;;9.77;83.88;101916.97;5037618;28;20301;-71
2021/10/07 06:53:09;;;;;;;7.03;4.87;;;;;;;9.74;83.40;101907.31;5040634;28;20231;-71
2021/10/07 06:58:22;;;;;;;6.60;3.87;;;;;;;9.69;83.47;101903.97;5011407;28;20234;-84
2021/10/07 07:00:49;;;;;;;4.63;4.00;;;;;;;9.67;83.80;101906.69;5013782;28;20225;-83
2021/10/07 07:03:17;;;;;;;5.57;4.07;;;;;;;9.65;84.08;101911.22;5007657;28;20221;-84
2021/10/07 07:05:44;;;;;;;6.37;4.17;;;;;;;9.67;83.94;101912.00;5021549;28;20211;-84
2021/10/07 07:08:11;;;;;;;6.10;4.07;;;;;;;9.67;84.01;101909.34;5012499;28;20322;-84
2021/10/07 07:10:37;;;;;;;6.60;4.60;;;;;;;9.68;84.36;101916.38;5007700;28;20309;-84
2021/10/07 07:13:07;;;;;;;6.47;4.60;;;;;;;9.71;84.69;101907.44;5010790;28;20293;-84
2021/10/07 07:15:35;;;;;;;6.23;4.70;;;;;;;9.75;84.50;101903.72;5012251;28;20747;-82
2021/10/07 07:18:01;;;;;;;6.30;4.60;;;;;;;9.80;84.76;101911.53;5009197;28;20752;-84
2021/10/07 07:20:29;;;;;;;6.37;4.30;;;;;;;9.87;85.64;101910.34;5008419;28;20309;-83
2021/10/07 07:22:56;;;;;;;5.63;5.03;;;;;;;9.94;85.87;101917.16;5004265;28;20297;-83
2021/10/07 07:25:22;;;;;;;7.33;4.80;;;;;;;10.01;85.80;101918.66;5011413;28;20665;-83
2021/10/07 07:27:49;;;;;;;6.07;4.57;;;;;;;10.10;85.99;101919.13;5014690;28;20281;-84
2021/10/07 07:30:16;;;;;;;9.37;5.43;;;;;;;10.20;86.27;101917.00;5013809;28;20305;-84
2021/10/07 07:32:42;;;;;;;9.77;6.20;;;;;;;10.31;86.56;101929.84;5014743;28;20221;-82
2021/10/07 07:35:10;;;;;;;11.90;5.93;;;;;;;10.44;87.27;101934.59;5012740;28;20214;-84
2021/10/07 07:37:38;;;;;;;9.17;6.43;;;;;;;10.58;87.32;101930.47;5012422;28;20233;-83
2021/10/07 07:40:06;;;;;;;10.00;6.57;;;;;;;10.72;87.19;101936.09;5011916;28;20286;-83
2021/10/07 07:42:33;;;;;;;11.63;6.57;;;;;;;10.88;87.58;101937.16;5006494;28;20290;-82
2021/10/07 07:44:59;;;;;;;10.67;6.10;;;;;;;11.04;87.58;101943.53;5012709;28;20696;-82
2021/10/07 07:47:26;;;;;;;9.83;6.07;;;;;;;11.23;87.46;101945.38;5005702;28;20247;-83
2021/10/07 07:49:53;;;;;;;8.73;6.00;;;;;;;11.39;87.21;101944.59;5012937;28;20596;-83
2021/10/07 07:52:19;;;;;;;8.07;6.13;;;;;;;11.56;86.85;101957.13;5012604;28;20222;-84
2021/10/07 07:54:47;;;;;;;9.83;6.10;;;;;;;11.72;86.76;101951.94;5012785;28;20207;-84
2021/10/07 07:57:14;;;;;;;11.10;6.50;;;;;;;11.89;86.31;101961.84;5011062;28;20355;-84
2021/10/07 07:59:40;;;;;;;8.57;5.63;;;;;;;12.03;85.71;101962.91;5012824;28;20283;-84
2021/10/07 08:02:08;;;;;;;7.47;5.53;;;;;;;12.19;85.19;101963.03;5013145;28;20697;-84
2021/10/07 08:04:34;;;;;;;7.77;5.53;;;;;;;12.35;84.44;101960.47;5010100;28;20207;-83
2021/10/07 08:07:01;;;;;;;7.97;5.27;;;;;;;12.52;83.67;101966.72;5011744;28;20645;-83
2021/10/07 08:09:28;;;;;;;6.07;5.40;;;;;;;12.69;83.21;101965.84;5008153;28;20241;-84
2021/10/07 08:11:56;;;;;;;7.90;5.00;;;;;;;12.86;82.42;101968.53;5011261;28;20231;-84
2021/10/07 08:14:22;;;;;;;5.33;4.70;;;;;;;13.01;81.94;101969.53;5007580;28;20287;-83
2021/10/07 08:16:49;;;;;;;9.00;5.40;;;;;;;13.18;80.82;101971.34;5010299;28;20294;-83
2021/10/07 08:19:16;;;;;;;11.00;5.13;;;;;;;13.30;79.91;101978.69;5011669;28;20684;-83
2021/10/07 08:21:42;;;;;;;7.10;5.37;;;;;;;13.43;79.47;101978.91;5009550;28;20257;-83
2021/10/07 08:24:11;;;;;;;6.80;5.00;;;;;;;13.54;79.24;101987.22;5016728;28;20286;-83
2021/10/07 08:26:39;;;;;;;8.23;4.87;;;;;;;13.63;78.18;101981.34;5014762;28;20214;-83
2021/10/07 08:29:07;;;;;;;6.53;5.00;;;;;;;13.77;78.10;101978.81;5015717;28;20223;-83
2021/10/07 08:31:34;;;;;;;8.47;4.97;;;;;;;13.94;78.37;101979.66;5011289;28;20227;-84
2021/10/07 08:34:00;;;;;;;5.57;4.53;;;;;;;14.10;77.43;101978.72;5016160;28;20497;-84
2021/10/07 08:36:29;;;;;;;6.67;5.10;;;;;;;14.26;77.31;101965.28;5014773;28;20293;-84
2021/10/07 08:38:55;;;;;;;5.87;4.23;;;;;;;14.41;76.25;101971.59;4999077;28;20216;-84
2021/10/07 08:41:25;;;;;;;4.90;4.40;;;;;;;14.56;75.26;101978.75;5013243;28;20298;-84
2021/10/07 08:43:53;;;;;;;6.20;4.13;;;;;;;14.69;74.72;101976.22;5016261;28;20242;-83
2021/10/07 08:46:21;;;;;;;4.60;4.00;;;;;;;14.79;73.60;101982.75;5015367;28;20203;-83
2021/10/07 08:48:48;;;;;;;6.00;4.53;;;;;;;14.90;73.07;101986.50;5015440;28;20249;-84
2021/10/07 08:51:15;;;;;;;4.63;3.50;;;;;;;15.01;72.84;101988.56;5008406;28;20251;-84
2021/10/07 08:53:42;;;;;;;4.57;3.70;;;;;;;15.16;72.60;101986.75;5014499;28;20286;-83
2021/10/07 08:56:09;;;;;;;4.57;3.47;;;;;;;15.25;71.64;101989.72;5016021;28;20226;-83
2021/10/07 08:58:35;;;;;;;5.07;3.73;;;;;;;15.37;70.93;101992.63;5010735;28;20235;-84
2021/10/07 09:01:04;;;;;;;3.40;3.10;;;;;;;15.47;70.46;101996.44;5014571;28;20257;-83
2021/10/07 09:03:40;;;;;;;3.90;3.27;;;;;;;15.52;69.61;101994.34;5016540;28;20206;-84
2021/10/07 09:06:12;;;;;;;3.47;3.17;;;;;;;15.50;68.69;101994.44;5003977;28;20628;-83
2021/10/07 09:08:48;;;;;;;4.97;3.47;;;;;;;15.46;68.36;101990.22;5016745;28;20287;-83
2021/10/07 09:11:29;;;;;;;5.27;3.40;;;;;;;15.47;68.08;101997.31;4997547;28;20314;-84
2021/10/07 09:14:00;;;;;;;3.57;2.77;;;;;;;15.50;68.73;102002.50;4997911;28;20209;-83
2021/10/07 09:16:30;;;;;;;5.13;2.40;;;;;;;15.56;68.58;101995.91;5016856;28;20242;-83
2021/10/07 09:19:17;;;;;;;3.53;2.33;;;;;;;15.60;68.61;101990.22;5016559;28;20219;-84
2021/10/07 09:21:44;;;;;;;2.87;2.17;;;;;;;15.66;68.21;101999.75;5004220;28;20313;-84
2021/10/07 09:24:30;;;;;;;6.37;3.70;;;;;;;15.72;67.77;101993.13;5016710;28;20668;-83
2021/10/07 09:27:00;;;;;;;5.53;3.83;;;;;;;15.69;67.64;101991.50;5016742;28;20315;-83
2021/10/07 09:29:47;;;;;;;5.03;4.03;;;;;;;15.76;68.41;101992.84;5007416;28;20318;-83
2021/10/07 09:32:15;;;;;;;3.97;3.50;;;;;;;15.81;67.92;101996.06;5003508;28;20291;-83
2021/10/07 09:34:49;;;;;;;5.87;3.63;;;;;;;15.86;68.11;101999.34;4998871;28;20292;-84
2021/10/07 09:37:34;;;;;;;5.10;3.67;;;;;;;15.95;67.86;101990.66;5015862;28;20216;-83
2021/10/07 09:40:05;;;;;;;5.20;3.40;;;;;;;16.01;67.35;101991.25;4986805;28;20271;-84
2021/10/07 09:42:35;;;;;;;3.73;3.20;;;;;;;16.05;67.04;101999.00;4998650;28;20186;-83
2021/10/07 09:45:12;;;;;;;3.63;3.23;;;;;;;16.04;67.00;101999.97;5012676;28;20290;-83
2021/10/07 09:47:41;;;;;;;4.73;3.57;;;;;;;16.02;66.63;101998.34;5000217;28;20200;-83
2021/10/07 09:50:15;;;;;;;5.10;3.53;;;;;;;16.00;66.66;102005.63;4997310;28;20235;-83
2021/10/07 09:52:43;;;;;;;4.80;4.10;;;;;;;16.00;66.68;102013.69;5012226;28;20296;-83
2021/10/07 09:55:12;;;;;;;4.73;3.70;;;;;;;15.96;66.92;102010.34;5015488;28;20218;-83
2021/10/07 09:57:49;;;;;;;5.23;3.50;;;;;;;16.01;66.82;102016.28;5008955;28;20262;-83
2021/10/07 10:00:16;;;;;;;4.27;3.37;;;;;;;16.06;66.75;102016.00;5004139;28;20222;-83
2021/10/07 10:02:43;;;;;;;4.93;2.90;;;;;;;16.11;66.95;102016.56;5002876;28;20215;-83
2021/10/07 10:05:12;;;;;;;5.03;3.50;;;;;;;16.20;66.74;102007.91;5017331;28;20251;-84
2021/10/07 10:07:38;;;;;;;4.17;3.67;;;;;;;16.24;66.45;102021.03;5013725;28;20237;-84
2021/10/07 10:10:06;;;;;;;5.40;3.60;;;;;;;16.30;66.08;102014.41;5006738;28;20734;-86
2021/10/07 10:12:34;;;;;;;4.20;3.33;;;;;;;16.33;66.01;102012.38;5002456;28;20275;-83
2021/10/07 10:15:02;;;;;;;4.03;3.57;;;;;;;16.36;65.71;102021.19;5016953;28;20218;-84
2021/10/07 10:17:29;;;;;;;6.03;3.93;;;;;;;16.36;65.47;102018.50;5005236;28;20234;-84
2021/10/07 10:19:58;;;;;;;4.57;3.20;;;;;;;16.39;65.44;102029.94;5012222;28;20305;-84
2021/10/07 10:22:27;;;;;;;5.97;3.47;;;;;;;16.42;65.16;102029.72;5007799;28;20712;-84
2021/10/07 10:24:54;;;;;;;3.50;3.17;;;;;;;16.44;65.08;102027.81;5003332;28;20310;-84
2021/10/07 10:27:21;;;;;;;4.37;3.07;;;;;;;16.50;64.94;102030.06;5014734;28;20208;-84
2021/10/07 10:29:48;;;;;;;8.07;3.53;;;;;;;16.58;65.09;102027.75;5015664;28;20243;-84
2021/10/07 10:32:15;;;;;;;3.97;3.50;;;;;;;16.64;64.73;102040.81;5012319;28;20309;-85
2021/10/07 10:34:44;;;;;;;6.53;3.80;;;;;;;16.70;64.67;102030.59;4998396;28;20320;-84
2021/10/07 10:37:13;;;;;;;3.77;2.93;;;;;;;16.75;64.88;102031.16;4996760;28;20634;-84
2021/10/07 10:39:45;;;;;;;3.80;3.40;;;;;;;16.80;64.70;102035.28;4995845;28;20308;-83
2021/10/07 10:42:24;;;;;;;5.00;3.50;;;;;;;16.83;64.12;102037.78;5009161;28;20660;-84
2021/10/07 10:44:52;;;;;;;4.87;3.17;;;;;;;16.81;63.50;102034.31;5003777;28;20297;-83
2021/10/07 10:47:27;;;;;;;3.73;3.07;;;;;;;16.80;63.32;102039.78;4995033;28;20293;-83
2021/10/07 10:50:02;;;;;;;3.97;2.90;;;;;;;16.81;63.08;102046.91;5000198;28;20319;-84
2021/10/07 10:52:31;;;;;;;4.07;2.97;;;;;;;16.81;62.89;102044.22;5006794;28;20263;-83
2021/10/07 10:55:00;;;;;;;4.03;2.90;;;;;;;16.83;62.69;102044.97;5004192;28;20817;-82
2021/10/07 10:57:29;;;;;;;3.80;2.67;;;;;;;16.85;62.66;102043.00;5005127;28;20251;-84
2021/10/07 11:00:15;;;;;;;3.40;2.43;;;;;;;16.90;62.36;102051.66;5004990;28;20756;-83
2021/10/07 11:02:43;;;;;;;4.83;2.70;;;;;;;16.93;62.17;102046.94;5011905;28;20661;-84
2021/10/07 11:05:19;;;;;;;3.43;2.23;;;;;;;16.95;61.72;102038.75;5005634;28;20627;-84
2021/10/07 11:07:46;;;;;;;2.43;2.20;;;;;;;16.99;61.77;102048.34;4997250;28;20288;-84
2021/10/07 11:10:27;;;;;;;2.23;1.80;;;;;;;17.04;61.20;102054.25;5014578;28;20237;-84
2021/10/07 11:12:56;;;;;;;2.73;2.17;;;;;;;17.08;60.93;102044.16;5010192;28;20243;-83
2021/10/07 11:15:25;;;;;;;2.50;1.73;;;;;;;17.09;60.63;102049.44;5011804;28;20218;-85
2021/10/07 11:17:53;;;;;;;2.20;2.00;;;;;;;17.06;60.02;102057.72;5018639;28;20238;-84
2021/10/07 11:20:23;;;;;;;1.90;1.80;;;;;;;17.06;60.00;102056.84;5010377;28;20257;-83
2021/10/07 11:23:06;;;;;;;3.63;1.63;;;;;;;17.06;60.21;102055.03;5001079;28;20291;-84
2021/10/07 11:25:35;;;;;;;2.40;1.67;;;;;;;17.09;60.05;102052.13;5012456;28;20233;-84
2021/10/07 11:28:03;;;;;;;4.23;1.90;;;;;;;17.11;59.94;102057.41;5022024;28;20299;-84
2021/10/07 11:30:33;;;;;;;2.77;2.50;;;;;;;17.11;59.69;102062.78;5009397;28;20269;-84
2021/10/07 11:33:00;;;;;;;3.07;2.60;;;;;;;17.11;59.37;102062.78;5017574;28;20217;-84
2021/10/07 11:35:27;;;;;;;2.90;2.60;;;;;;;17.08;59.49;102069.25;5018315;28;20214;-84